Saint-Jacques, Canada
Current Conditions -  °F | °C
As of 8:00 PM on Friday 28 Nov 2014 (Local Time) from CYMX Reporting Station
Scattered Clouds Scattered Clouds  
Wind Chill: 19°   Ceiling: Unl
Heat Index: 19°   Visibility: 25mi
Dew Point:   Wind: 3mph
Humidity: 63%   Direction: 280°W
Pressure: 30.18"   Gusts: NA
Location:  45.95°N, 73.57°W
Report Text: CYMX 290100Z 28003KT 250V320 25SM SCT032 M07/M13 A3018 RMK SC4 SLP226
Loading
Personal Weather Stations






























Interactive Weather Map New forecast layout! Learn more

10-Day Weather Forecast

Advertisements
Track Severe Weather on mobile